Time;durP1;ratioP1;P1;durP2;ratioP2;P2;SDS_P1;SDS_P2;PMS_P1;PMS_P2;Temp;Humidity;BMP_temperature;BMP_pressure;BME280_temperature;BME280_humidity;BME280_pressure;Samples;Min_cycle;Max_cycle;Signal;HPM_P1;HPM_P2
2022/08/10 00:01:52;;;;;;;;;;;;;;;29.22;46.75;101392.34;5092762;28;20375;-77
2022/08/10 00:04:20;;;;;;;;;;;;;;;29.24;47.02;101394.88;5094396;28;19923;-77
2022/08/10 00:06:49;;;;;;;;;;;;;;;29.23;46.79;101388.59;5093797;28;20401;-77
2022/08/10 00:09:17;;;;;;;;;;;;;;;29.23;46.94;101390.47;5094191;28;19927;-77
2022/08/10 00:11:44;;;;;;;;;;;;;;;29.24;46.70;101386.69;5093006;28;20287;-77
2022/08/10 00:14:11;;;;;;;;;;;;;;;29.23;46.65;101395.91;5094229;28;19920;-77
2022/08/10 00:16:38;;;;;;;;;;;;;;;29.23;47.05;101395.91;5092881;28;19920;-77
2022/08/10 00:19:05;;;;;;;;;;;;;;;29.23;46.63;101388.59;5093888;28;19920;-78
2022/08/10 00:21:32;;;;;;;;;;;;;;;29.23;46.81;101396.75;5096951;28;19924;-77
2022/08/10 00:23:59;;;;;;;;;;;;;;;29.23;46.73;101385.00;5097924;28;19924;-77
2022/08/10 00:26:26;;;;;;;;;;;;;;;29.23;46.61;101390.47;5098149;28;20279;-77
2022/08/10 00:29:14;;;;;;;;;;;;;;;29.22;46.74;101389.63;5096393;28;20280;-77
2022/08/10 00:31:41;;;;;;;;;;;;;;;29.22;46.72;101389.63;5098186;28;19920;-77
2022/08/10 00:34:25;;;;;;;;;;;;;;;29.22;46.91;101389.63;5098204;28;19920;-77
2022/08/10 00:36:53;;;;;;;;;;;;;;;29.22;46.81;101380.59;5097624;28;19969;-77
2022/08/10 00:39:21;;;;;;;;;;;;;;;29.22;46.99;101383.31;5098175;28;19923;-78
2022/08/10 00:41:48;;;;;;;;;;;;;;;29.23;46.88;101390.47;5096980;28;20408;-77
2022/08/10 00:44:34;;;;;;;;;;;;;;;29.22;46.59;101391.50;5097426;28;19920;-77
2022/08/10 00:47:01;;;;;;;;;;;;;;;29.23;46.72;101390.47;5098024;28;19986;-77
2022/08/10 00:49:28;;;;;;;;;;;;;;;29.21;46.98;101393.38;5097442;28;19927;-78
2022/08/10 00:51:56;;;;;;;;;;;;;;;29.21;46.72;101379.75;5096042;28;19920;-77
2022/08/10 00:54:23;;;;;;;;;;;;;;;29.22;46.67;101386.06;5097634;28;19920;-77
2022/08/10 00:56:51;;;;;;;;;;;;;;;29.22;46.89;101377.88;5096933;28;19927;-77
2022/08/10 00:59:38;;;;;;;;;;;;;;;29.23;46.62;101387.75;5096894;28;19982;-77
2022/08/10 01:02:26;;;;;;;;;;;;;;;29.21;46.91;101382.47;5097513;28;19926;-77
2022/08/10 01:04:53;;;;;;;;;;;;;;;29.22;46.93;101380.59;5097380;28;19927;-77
2022/08/10 01:07:26;;;;;;;;;;;;;;;29.21;46.96;101376.16;5097688;28;19934;-77
2022/08/10 01:10:00;;;;;;;;;;;;;;;29.20;46.48;101380.75;5097864;28;19927;-78
2022/08/10 01:12:31;;;;;;;;;;;;;;;29.21;46.91;101376.16;5096263;28;19920;-77
2022/08/10 01:15:06;;;;;;;;;;;;;;;29.21;46.95;101384.34;5097185;28;19920;-77
2022/08/10 01:17:33;;;;;;;;;;;;;;;29.21;46.99;101392.50;5096902;28;19919;-77
2022/08/10 01:20:31;;;;;;;;;;;;;;;29.21;46.58;101397.97;5097737;28;19920;-77
2022/08/10 01:23:17;;;;;;;;;;;;;;;29.20;46.52;101390.81;5097405;28;19920;-77
2022/08/10 01:25:44;;;;;;;;;;;;;;;29.20;46.92;101397.13;5096714;28;19927;-77
2022/08/10 01:28:31;;;;;;;;;;;;;;;29.19;46.88;101394.59;5095391;28;19920;-77
2022/08/10 01:31:00;;;;;;;;;;;;;;;29.19;46.87;101395.44;5096671;28;19920;-77
2022/08/10 01:33:35;;;;;;;;;;;;;;;29.19;46.84;101395.44;5095620;28;19927;-77
2022/08/10 01:36:31;;;;;;;;;;;;;;;29.19;46.60;101389.13;5097290;28;19927;-77
2022/08/10 01:39:00;;;;;;;;;;;;;;;29.19;46.49;101398.16;5096544;28;19920;-77
2022/08/10 01:41:49;;;;;;;;;;;;;;;29.19;46.80;101395.44;5096771;28;19920;-77
2022/08/10 01:44:24;;;;;;;;;;;;;;;29.19;46.90;101394.59;5097327;28;19927;-77
2022/08/10 01:46:54;;;;;;;;;;;;;;;29.18;46.82;101399.19;5095785;28;20291;-78
2022/08/10 01:49:23;;;;;;;;;;;;;;;29.18;46.79;101399.19;5096903;28;19927;-77
2022/08/10 01:51:55;;;;;;;;;;;;;;;29.19;46.46;101394.59;5096253;28;19920;-77
2022/08/10 01:54:27;;;;;;;;;;;;;;;29.18;46.62;101391.03;5096014;28;19920;-77
2022/08/10 01:56:55;;;;;;;;;;;;;;;29.19;46.78;101397.31;5094424;28;19929;-77
2022/08/10 01:59:28;;;;;;;;;;;;;;;29.19;46.82;101397.31;5096936;28;19920;-77
2022/08/10 02:02:00;;;;;;;;;;;;;;;29.18;46.87;101393.75;5078004;28;19927;-77
2022/08/10 02:04:29;;;;;;;;;;;;;;;29.17;46.86;101386.59;5096282;28;19920;-77
2022/08/10 02:06:59;;;;;;;;;;;;;;;29.18;46.85;101382.84;5096458;28;19920;-77
2022/08/10 02:09:28;;;;;;;;;;;;;;;29.18;46.83;101379.28;5095796;28;19920;-77
2022/08/10 02:11:58;;;;;;;;;;;;;;;29.18;46.87;101379.28;5095798;28;20299;-77
2022/08/10 02:14:36;;;;;;;;;;;;;;;29.17;46.70;101383.88;5096385;28;19920;-77
2022/08/10 02:17:08;;;;;;;;;;;;;;;29.18;46.58;101379.28;5095666;28;19920;-77
2022/08/10 02:19:57;;;;;;;;;;;;;;;29.17;46.88;101372.97;5096284;28;19927;-77
2022/08/10 02:22:25;;;;;;;;;;;;;;;29.16;46.87;101365.81;5095631;28;20276;-77
2022/08/10 02:25:08;;;;;;;;;;;;;;;29.17;46.78;101374.81;5095769;28;20279;-77
2022/08/10 02:27:55;;;;;;;;;;;;;;;29.17;46.37;101374.81;5094565;28;20367;-77
2022/08/10 02:30:23;;;;;;;;;;;;;;;29.16;46.80;101375.88;5095492;28;19919;-77
2022/08/10 02:32:51;;;;;;;;;;;;;;;29.17;46.84;101366.66;5095315;28;19936;-77
2022/08/10 02:35:20;;;;;;;;;;;;;;;29.17;46.67;101366.66;5095889;28;19927;-77
2022/08/10 02:37:50;;;;;;;;;;;;;;;29.16;46.55;101370.41;5095314;28;19920;-77
2022/08/10 02:40:18;;;;;;;;;;;;;;;29.16;46.63;101365.81;5095239;28;20394;-77
2022/08/10 02:43:25;;;;;;;;;;;;;;;29.16;46.41;101371.25;5094971;28;19920;-77
2022/08/10 02:46:15;;;;;;;;;;;;;;;29.16;46.82;101367.69;5094558;28;19924;-77
2022/08/10 02:48:50;;;;;;;;;;;;;;;29.16;46.50;101367.69;5096032;28;19920;-77
2022/08/10 02:51:19;;;;;;;;;;;;;;;29.16;46.87;101371.25;5094824;28;19920;-77
2022/08/10 02:54:08;;;;;;;;;;;;;;;29.16;46.77;101373.97;5095316;28;19928;-77
2022/08/10 02:56:45;;;;;;;;;;;;;;;29.15;46.75;101366.84;5095316;28;19920;-77
2022/08/10 02:59:18;;;;;;;;;;;;;;;29.16;46.61;101364.97;5095817;28;19920;-77
2022/08/10 03:01:46;;;;;;;;;;;;;;;29.15;46.71;101372.28;5095526;28;19920;-77
2022/08/10 03:04:18;;;;;;;;;;;;;;;29.15;46.53;101371.44;5095403;28;19929;-77
2022/08/10 03:06:48;;;;;;;;;;;;;;;29.15;46.78;101374.19;5095626;28;20378;-77
2022/08/10 03:09:16;;;;;;;;;;;;;;;29.15;46.82;101366.00;5094776;28;20307;-77
2022/08/10 03:11:44;;;;;;;;;;;;;;;29.15;46.74;101372.28;5094700;28;19927;-77
2022/08/10 03:14:33;;;;;;;;;;;;;;;29.15;46.82;101372.28;5094268;28;19947;-77
2022/08/10 03:17:01;;;;;;;;;;;;;;;29.14;46.39;101367.88;5095141;28;19920;-77
2022/08/10 03:19:29;;;;;;;;;;;;;;;29.14;46.83;101370.59;5094589;28;20394;-77
2022/08/10 03:22:16;;;;;;;;;;;;;;;29.14;46.79;101372.50;5094450;28;20299;-77
2022/08/10 03:24:44;;;;;;;;;;;;;;;29.14;46.75;101376.06;5094523;28;19943;-77
2022/08/10 03:27:13;;;;;;;;;;;;;;;29.13;46.73;101368.91;5095032;28;20355;-77
2022/08/10 03:29:40;;;;;;;;;;;;;;;29.13;46.72;101374.38;5095263;28;19927;-77
2022/08/10 03:32:29;;;;;;;;;;;;;;;29.14;46.84;101377.94;5094050;28;19927;-77
2022/08/10 03:34:57;;;;;;;;;;;;;;;29.14;46.83;101375.22;5094627;28;19927;-77
2022/08/10 03:37:26;;;;;;;;;;;;;;;29.14;46.65;101373.34;5094159;28;20294;-77
2022/08/10 03:39:53;;;;;;;;;;;;;;;29.12;46.83;101375.38;5094281;28;20388;-77
2022/08/10 03:42:22;;;;;;;;;;;;;;;29.13;46.59;101374.38;5093119;28;19930;-77
2022/08/10 03:44:51;;;;;;;;;;;;;;;29.14;46.40;101375.22;5094799;28;19920;-77
2022/08/10 03:47:19;;;;;;;;;;;;;;;29.13;46.83;101377.09;5094483;28;20275;-77
2022/08/10 03:49:47;;;;;;;;;;;;;;;29.13;46.80;101378.94;5093033;28;19927;-77
2022/08/10 03:52:15;;;;;;;;;;;;;;;29.13;46.79;101373.50;5093990;28;19920;-77
2022/08/10 03:54:43;;;;;;;;;;;;;;;29.12;46.87;101372.66;5094419;28;20348;-77
2022/08/10 03:57:10;;;;;;;;;;;;;;;29.12;46.55;101378.09;5093957;28;19927;-77
2022/08/10 03:59:37;;;;;;;;;;;;;;;29.12;46.57;101383.56;5094073;28;19920;-77
2022/08/10 04:02:05;;;;;;;;;;;;;;;29.12;46.72;101386.28;5092881;28;19920;-77
2022/08/10 04:04:52;;;;;;;;;;;;;;;29.12;46.52;101393.63;5094306;28;19924;-77
2022/08/10 04:07:19;;;;;;;;;;;;;;;29.13;46.39;101395.31;5093786;28;19920;-77
2022/08/10 04:09:46;;;;;;;;;;;;;;;29.12;46.73;101390.91;5094536;28;19927;-77
2022/08/10 04:12:22;;;;;;;;;;;;;;;29.12;46.32;101396.34;5092660;28;19928;-77
2022/08/10 04:14:50;;;;;;;;;;;;;;;29.12;46.68;101399.06;5093892;28;19927;-77
2022/08/10 04:17:20;;;;;;;;;;;;;;;29.11;46.47;101402.84;5093832;28;19920;-77
2022/08/10 04:20:15;;;;;;;;;;;;;;;29.11;46.46;101400.13;5094297;28;19927;-77
2022/08/10 04:22:43;;;;;;;;;;;;;;;29.11;46.33;101403.69;5094147;28;19931;-77
2022/08/10 04:25:11;;;;;;;;;;;;;;;29.11;46.41;101409.13;5093830;28;19927;-77
2022/08/10 04:27:38;;;;;;;;;;;;;;;29.11;46.44;101409.13;5094099;28;19920;-77
2022/08/10 04:30:06;;;;;;;;;;;;;;;29.11;46.40;101419.19;5094057;28;20364;-77
2022/08/10 04:32:34;;;;;;;;;;;;;;;29.11;46.68;101411.03;5094583;28;19934;-77
2022/08/10 04:35:03;;;;;;;;;;;;;;;29.11;46.46;101413.75;5093805;28;19926;-77
2022/08/10 04:37:33;;;;;;;;;;;;;;;29.11;46.66;101411.88;5093667;28;19990;-77
2022/08/10 04:40:01;;;;;;;;;;;;;;;29.10;46.50;101412.91;5094248;28;19934;-77
2022/08/10 04:42:28;;;;;;;;;;;;;;;29.10;46.62;101418.34;5093666;28;19920;-77
2022/08/10 04:44:55;;;;;;;;;;;;;;;29.10;46.44;101421.09;5092459;28;19919;-77
2022/08/10 04:47:22;;;;;;;;;;;;;;;29.10;46.59;101422.97;5092443;28;19991;-77
2022/08/10 04:50:10;;;;;;;;;;;;;;;29.10;46.37;101422.97;5093588;28;19919;-77
2022/08/10 04:52:38;;;;;;;;;;;;;;;29.09;46.58;101419.41;5093579;28;19927;-77
2022/08/10 04:55:05;;;;;;;;;;;;;;;29.09;46.60;101419.41;5093562;28;19920;-77
2022/08/10 04:57:32;;;;;;;;;;;;;;;29.10;46.65;101423.81;5093422;28;19939;-77
2022/08/10 04:59:59;;;;;;;;;;;;;;;29.09;46.49;101435.75;5093513;28;20290;-77
2022/08/10 05:02:26;;;;;;;;;;;;;;;29.10;46.63;101439.31;5093432;28;19920;-77
2022/08/10 05:04:58;;;;;;;;;;;;;;;29.08;46.49;101437.59;5093542;28;19920;-77
2022/08/10 05:07:25;;;;;;;;;;;;;;;29.10;46.47;101439.31;5096316;28;19924;-77
2022/08/10 05:09:55;;;;;;;;;;;;;;;29.09;46.16;101446.66;5095938;28;19947;-77
2022/08/10 05:12:35;;;;;;;;;;;;;;;29.08;46.61;101448.50;5097601;28;19920;-77
2022/08/10 05:15:07;;;;;;;;;;;;;;;29.09;46.17;101449.38;5097808;28;20366;-77
2022/08/10 05:17:35;;;;;;;;;;;;;;;29.08;46.16;101451.22;5097157;28;19927;-77
2022/08/10 05:20:06;;;;;;;;;;;;;;;29.08;46.54;101453.97;5096747;28;19923;-77
2022/08/10 05:22:35;;;;;;;;;;;;;;;29.08;46.50;101455.84;5097447;28;19920;-77
2022/08/10 05:25:03;;;;;;;;;;;;;;;29.08;46.32;101451.22;5096794;28;19947;-77
2022/08/10 05:27:30;;;;;;;;;;;;;;;29.08;46.51;101453.97;5096798;28;19920;-77
2022/08/10 05:29:58;;;;;;;;;;;;;;;29.08;46.32;101453.13;5096515;28;20267;-77
2022/08/10 05:32:27;;;;;;;;;;;;;;;29.07;46.57;101451.44;5096650;28;19920;-77
2022/08/10 05:34:54;;;;;;;;;;;;;;;29.07;46.57;101455.00;5096548;28;19920;-77
2022/08/10 05:37:22;;;;;;;;;;;;;;;29.06;46.25;101439.69;5097333;28;20295;-77
2022/08/10 05:40:10;;;;;;;;;;;;;;;29.06;46.54;101442.41;5095898;28;19920;-77
2022/08/10 05:42:37;;;;;;;;;;;;;;;29.07;46.25;101440.53;5096691;28;19920;-77
2022/08/10 05:45:05;;;;;;;;;;;;;;;29.07;46.14;101437.78;5096992;28;20260;-77
2022/08/10 05:47:32;;;;;;;;;;;;;;;29.06;46.46;101439.69;5096254;28;19927;-77
2022/08/10 05:50:27;;;;;;;;;;;;;;;29.06;46.11;101438.84;5095036;28;19942;-77
2022/08/10 05:52:54;;;;;;;;;;;;;;;29.06;46.28;101436.09;5096250;28;20286;-77
2022/08/10 05:55:22;;;;;;;;;;;;;;;29.06;46.42;101433.38;5096764;28;19934;-77
2022/08/10 05:57:50;;;;;;;;;;;;;;;29.06;46.22;101436.94;5094616;28;19920;-77
2022/08/10 06:00:20;;;;;;;;;;;;;;;29.06;46.51;101441.56;5096361;28;20279;-77
2022/08/10 06:03:06;;;;;;;;;;;;;;;29.05;46.10;101438.00;5095985;28;19927;-77
2022/08/10 06:05:35;;;;;;;;;;;;;;;29.06;46.13;101447.84;5094784;28;20311;-77
2022/08/10 06:08:04;;;;;;;;;;;;;;;29.06;46.14;101442.41;5095912;28;19924;-77
2022/08/10 06:10:32;;;;;;;;;;;;;;;29.06;46.45;101444.28;5095875;28;19927;-77
2022/08/10 06:16:11;;;;;;;;;;;;;;;29.06;46.40;101444.28;5096143;28;20368;-77
2022/08/10 06:18:38;;;;;;;;;;;;;;;29.05;46.42;101446.16;5096152;28;19919;-77
2022/08/10 06:21:08;;;;;;;;;;;;;;;29.05;46.42;101443.44;5096248;28;20283;-77
2022/08/10 06:23:35;;;;;;;;;;;;;;;29.06;46.39;101444.28;5094589;28;19927;-77
2022/08/10 06:26:02;;;;;;;;;;;;;;;29.05;46.09;101448.06;5096177;28;19938;-77
2022/08/10 06:28:42;;;;;;;;;;;;;;;29.04;46.44;101444.44;5096120;28;19920;-77
2022/08/10 06:31:29;;;;;;;;;;;;;;;29.04;46.45;101444.44;5095706;28;19927;-77
2022/08/10 06:34:23;;;;;;;;;;;;;;;29.04;46.11;101446.34;5096275;28;19943;-77
2022/08/10 06:36:51;;;;;;;;;;;;;;;29.04;46.50;101444.44;5096218;28;19927;-77
2022/08/10 06:39:19;;;;;;;;;;;;;;;29.05;46.29;101448.06;5095335;28;19927;-77
2022/08/10 06:42:14;;;;;;;;;;;;;;;29.03;46.48;101445.47;5095612;28;20286;-77
2022/08/10 06:44:57;;;;;;;;;;;;;;;29.04;46.33;101458.06;5095190;28;19920;-77
2022/08/10 06:47:27;;;;;;;;;;;;;;;29.05;46.46;101453.50;5093948;28;20287;-77
2022/08/10 06:49:57;;;;;;;;;;;;;;;29.04;46.39;101451.78;5095975;28;19927;-77
2022/08/10 06:52:29;;;;;;;;;;;;;;;29.04;46.37;101446.34;5095996;28;19927;-77
2022/08/10 06:54:58;;;;;;;;;;;;;;;29.03;46.44;101445.47;5095292;28;19928;-77
2022/08/10 06:57:29;;;;;;;;;;;;;;;29.03;46.11;101448.22;5095253;28;19920;-77
2022/08/10 06:59:58;;;;;;;;;;;;;;;29.04;46.37;101446.34;5095397;28;19924;-77
2022/08/10 07:02:36;;;;;;;;;;;;;;;29.03;46.43;101447.38;5095582;28;20291;-77
2022/08/10 07:05:05;;;;;;;;;;;;;;;29.03;46.24;101448.22;5094998;28;20378;-77
2022/08/10 07:07:35;;;;;;;;;;;;;;;29.03;46.33;101450.94;5094830;28;20295;-77
2022/08/10 07:10:02;;;;;;;;;;;;;;;29.04;46.37;101446.34;5095641;28;20275;-77
2022/08/10 07:12:30;;;;;;;;;;;;;;;29.04;46.17;101449.06;5094736;28;19920;-77
2022/08/10 07:14:58;;;;;;;;;;;;;;;29.02;46.35;101454.69;5094575;28;19943;-77
2022/08/10 07:17:26;;;;;;;;;;;;;;;29.03;46.35;101448.22;5094586;28;19920;-77
2022/08/10 07:19:55;;;;;;;;;;;;;;;29.02;46.31;101451.97;5094583;28;19940;-77
2022/08/10 07:22:26;;;;;;;;;;;;;;;29.02;46.49;101453.84;5094579;28;19920;-77
2022/08/10 07:25:21;;;;;;;;;;;;;;;29.03;46.56;101452.81;5095420;28;20275;-77
2022/08/10 07:27:48;;;;;;;;;;;;;;;29.02;46.37;101449.25;5095285;28;19920;-77
2022/08/10 07:30:28;;;;;;;;;;;;;;;29.03;46.41;101445.47;5093975;28;19927;-77
2022/08/10 07:32:56;;;;;;;;;;;;;;;29.02;46.48;101445.69;5094379;28;20290;-77
2022/08/10 07:35:25;;;;;;;;;;;;;;;29.03;46.28;101447.38;5094644;28;19927;-77
2022/08/10 07:37:53;;;;;;;;;;;;;;;29.03;46.60;101447.38;5094576;28;19919;-77
2022/08/10 07:40:21;;;;;;;;;;;;;;;29.03;46.61;101456.38;5095180;28;20267;-77
2022/08/10 07:42:51;;;;;;;;;;;;;;;29.02;46.53;101451.13;5094244;28;19927;-77
2022/08/10 07:45:18;;;;;;;;;;;;;;;29.02;46.58;101449.25;5094173;28;19927;-77
2022/08/10 07:47:50;;;;;;;;;;;;;;;29.03;46.53;101461.00;5094728;28;20248;-79
2022/08/10 07:50:23;;;;;;;;;;;;;;;29.03;46.62;101450.94;5094190;28;19927;-77
2022/08/10 07:52:52;;;;;;;;;;;;;;;29.03;46.50;101447.38;5094040;28;19920;-77
2022/08/10 07:55:19;;;;;;;;;;;;;;;29.02;46.62;101448.41;5094921;28;19920;-77
2022/08/10 07:58:07;;;;;;;;;;;;;;;29.02;46.42;101438.34;5093961;28;19986;-77
2022/08/10 08:00:35;;;;;;;;;;;;;;;29.03;46.25;101440.03;5094614;28;19927;-79
2022/08/10 08:03:06;;;;;;;;;;;;;;;29.03;46.64;101445.47;5094000;28;19927;-78
2022/08/10 08:05:33;;;;;;;;;;;;;;;29.03;46.65;101439.19;5094397;28;19920;-78
2022/08/10 08:08:21;;;;;;;;;;;;;;;29.02;46.25;101438.34;5094535;28;19920;-78
2022/08/10 08:10:49;;;;;;;;;;;;;;;29.03;46.63;101436.47;5094425;28;20348;-78
2022/08/10 08:13:19;;;;;;;;;;;;;;;29.02;46.56;101441.06;5093941;28;19920;-78
2022/08/10 08:15:47;;;;;;;;;;;;;;;29.03;46.56;101440.03;5092708;28;19934;-78
2022/08/10 08:18:36;;;;;;;;;;;;;;;29.01;46.61;101431.19;5094107;28;19927;-78
2022/08/10 08:21:04;;;;;;;;;;;;;;;29.02;46.54;101435.63;5094112;28;19920;-78
2022/08/10 08:23:51;;;;;;;;;;;;;;;29.02;46.54;101438.34;5094442;28;19920;-78
2022/08/10 08:26:39;;;;;;;;;;;;;;;29.02;46.24;101441.06;5094414;28;19920;-78
2022/08/10 08:29:08;;;;;;;;;;;;;;;29.03;46.21;101442.75;5094610;28;19920;-78
2022/08/10 08:31:35;;;;;;;;;;;;;;;29.02;46.67;101441.06;5093720;28;19927;-78
2022/08/10 08:34:20;;;;;;;;;;;;;;;29.03;46.60;101442.75;5094067;28;20394;-78
2022/08/10 08:36:48;;;;;;;;;;;;;;;29.03;46.56;101440.03;5094219;28;19920;-78
2022/08/10 08:39:16;;;;;;;;;;;;;;;29.03;46.29;101440.03;5093859;28;19920;-78
2022/08/10 08:41:59;;;;;;;;;;;;;;;29.02;46.52;101438.34;5095228;28;20375;-78
2022/08/10 08:44:35;;;;;;;;;;;;;;;29.02;46.35;101437.50;5098147;28;20378;-78
2022/08/10 08:47:20;;;;;;;;;;;;;;;29.03;46.69;101445.47;5098110;28;19920;-78
2022/08/10 08:50:10;;;;;;;;;;;;;;;29.03;46.70;101439.19;5097454;28;19920;-78
2022/08/10 08:52:37;;;;;;;;;;;;;;;29.03;46.42;101440.03;5097380;28;19943;-78
2022/08/10 08:55:17;;;;;;;;;;;;;;;29.03;46.59;101431.00;5097351;28;19924;-78
2022/08/10 08:58:25;;;;;;;;;;;;;;;29.02;46.52;101427.44;5097152;28;19924;-78
2022/08/10 09:01:12;;;;;;;;;;;;;;;29.03;46.65;101436.47;5097447;28;19920;-78
2022/08/10 09:03:45;;;;;;;;;;;;;;;29.04;46.65;101424.53;5096214;28;19920;-78
2022/08/10 09:06:15;;;;;;;;;;;;;;;29.02;46.63;101422.00;5097429;28;19927;-78
2022/08/10 09:09:01;;;;;;;;;;;;;;;29.03;46.37;101420.09;5097116;28;19927;-78
2022/08/10 09:11:53;;;;;;;;;;;;;;;29.03;46.61;101431.00;5097208;28;19920;-78
2022/08/10 09:14:32;;;;;;;;;;;;;;;29.03;46.69;101412.78;5097627;28;19920;-78
2022/08/10 09:17:19;;;;;;;;;;;;;;;29.03;46.43;101423.69;5097852;28;19927;-78
2022/08/10 09:19:57;;;;;;;;;;;;;;;29.03;46.61;101429.13;5095634;28;19920;-77
2022/08/10 09:22:30;;;;;;;;;;;;;;;29.02;46.69;101424.72;5097504;28;19924;-77
2022/08/10 09:25:12;;;;;;;;;;;;;;;29.03;46.52;101428.28;5097323;28;19920;-77
2022/08/10 09:27:40;;;;;;;;;;;;;;;29.03;46.61;101425.56;5095949;28;20391;-77
2022/08/10 09:30:10;;;;;;;;;;;;;;;29.03;46.33;101411.94;5079411;28;19920;-77
2022/08/10 09:32:47;;;;;;;;;;;;;;;29.02;46.57;101408.34;5097519;28;19927;-77
2022/08/10 09:35:41;;;;;;;;;;;;;;;29.02;46.39;101400.19;5096496;28;19928;-77
2022/08/10 09:38:50;;;;;;;;;;;;;;;29.02;46.51;101405.63;5097354;28;19927;-77
2022/08/10 09:41:29;;;;;;;;;;;;;;;29.03;46.56;101411.94;5096488;28;19927;-77
2022/08/10 09:44:03;;;;;;;;;;;;;;;29.03;46.48;101403.75;5097050;28;19920;-77
2022/08/10 09:46:46;;;;;;;;;;;;;;;29.02;46.46;101397.47;5096936;28;19920;-77
2022/08/10 09:49:19;;;;;;;;;;;;;;;29.04;46.48;101399.97;5095352;28;19931;-77
2022/08/10 09:51:51;;;;;;;;;;;;;;;29.03;46.42;101401.03;5096041;28;19920;-78
2022/08/10 09:54:37;;;;;;;;;;;;;;;29.02;46.63;101400.19;5096592;28;20295;-77
2022/08/10 09:57:07;;;;;;;;;;;;;;;29.04;46.50;101391.81;5096189;28;19927;-77
2022/08/10 10:00:07;;;;;;;;;;;;;;;29.03;46.60;101395.56;5096618;28;19926;-77
2022/08/10 10:02:39;;;;;;;;;;;;;;;29.03;46.63;101385.50;5096663;28;20283;-77
2022/08/10 10:05:21;;;;;;;;;;;;;;;29.04;46.26;101386.34;5096761;28;19920;-77
2022/08/10 10:08:12;;;;;;;;;;;;;;;29.02;46.38;101383.81;5095850;28;19920;-78
2022/08/10 10:11:15;;;;;;;;;;;;;;;29.03;46.61;101377.34;5092931;28;19920;-78
2022/08/10 10:13:54;;;;;;;;;;;;;;;29.03;46.19;101377.34;5074069;28;19920;-78
2022/08/10 10:16:39;;;;;;;;;;;;;;;29.03;46.26;101380.06;5058569;28;19925;-77
2022/08/10 10:19:14;;;;;;;;;;;;;;;29.03;46.53;101380.06;5056253;28;19920;-78
2022/08/10 10:21:44;;;;;;;;;;;;;;;29.04;46.45;101383.63;5073877;28;19920;-78
2022/08/10 10:24:33;;;;;;;;;;;;;;;29.03;46.28;101374.59;5073272;28;20295;-78
2022/08/10 10:27:18;;;;;;;;;;;;;;;29.03;46.35;101369.16;5073845;28;19927;-78
2022/08/10 10:29:58;;;;;;;;;;;;;;;29.03;46.28;101362.84;5073244;28;19927;-78
2022/08/10 10:32:33;;;;;;;;;;;;;;;29.03;46.17;101363.72;5074046;28;19920;-78
2022/08/10 10:35:14;;;;;;;;;;;;;;;29.02;46.11;101356.56;5073378;28;19920;-78
2022/08/10 10:37:41;;;;;;;;;;;;;;;29.02;46.28;101356.56;5073323;28;19920;-78
2022/08/10 10:40:51;;;;;;;;;;;;;;;29.03;46.31;101354.69;5073515;28;20319;-78
2022/08/10 10:43:37;;;;;;;;;;;;;;;29.02;46.39;101356.56;5065467;28;19920;-78
2022/08/10 10:46:07;;;;;;;;;;;;;;;29.02;46.42;101356.56;5055807;28;19927;-78
2022/08/10 10:48:45;;;;;;;;;;;;;;;29.04;46.45;101348.19;5086904;28;19950;-78
2022/08/10 10:51:20;;;;;;;;;;;;;;;29.03;46.43;101352.81;5094878;28;19920;-78
2022/08/10 10:53:59;;;;;;;;;;;;;;;29.02;46.48;101339.38;5093927;28;20295;-78
2022/08/10 10:56:34;;;;;;;;;;;;;;;29.02;46.17;101345.66;5095840;28;19920;-78
2022/08/10 10:59:07;;;;;;;;;;;;;;;29.03;46.37;101352.81;5094709;28;19924;-78
2022/08/10 11:01:54;;;;;;;;;;;;;;;29.03;46.41;101352.81;5094562;28;19920;-78
2022/08/10 11:04:30;;;;;;;;;;;;;;;29.03;46.01;101350.06;5094182;28;19934;-78
2022/08/10 11:07:01;;;;;;;;;;;;;;;29.03;46.21;101341.91;5094791;28;19942;-78
2022/08/10 11:09:51;;;;;;;;;;;;;;;29.03;46.03;101346.50;5094814;28;19924;-78
2022/08/10 11:12:42;;;;;;;;;;;;;;;29.03;46.12;101341.91;5095009;28;19924;-78
2022/08/10 11:15:34;;;;;;;;;;;;;;;29.03;46.12;101335.59;5095598;28;19920;-78
2022/08/10 11:18:39;;;;;;;;;;;;;;;29.02;46.20;101337.47;5095265;28;20287;-78
2022/08/10 11:21:19;;;;;;;;;;;;;;;29.02;45.99;101332.03;5091265;28;19920;-78
2022/08/10 11:23:50;;;;;;;;;;;;;;;29.01;46.01;101327.63;5095091;28;19943;-78
2022/08/10 11:26:50;;;;;;;;;;;;;;;29.02;45.70;101329.31;5093409;28;20371;-78
2022/08/10 11:29:21;;;;;;;;;;;;;;;29.02;46.04;101325.75;5092868;28;19950;-78
2022/08/10 11:31:56;;;;;;;;;;;;;;;29.03;45.90;101332.88;5094804;28;19920;-78
2022/08/10 11:34:23;;;;;;;;;;;;;;;29.02;46.04;101333.91;5093803;28;19920;-78
2022/08/10 11:37:11;;;;;;;;;;;;;;;29.01;46.12;101324.91;5093401;28;20379;-78
2022/08/10 11:39:46;;;;;;;;;;;;;;;29.02;46.17;101321.13;5094224;28;20318;-78
2022/08/10 11:42:19;;;;;;;;;;;;;;;29.02;46.24;101323.84;5094880;28;20284;-78
2022/08/10 11:45:01;;;;;;;;;;;;;;;29.02;46.17;101299.31;5094614;28;20283;-78
2022/08/10 11:47:46;;;;;;;;;;;;;;;29.03;46.17;101322.81;5094491;28;20390;-78
2022/08/10 11:50:35;;;;;;;;;;;;;;;29.03;46.06;101313.78;5094050;28;19924;-78
2022/08/10 11:53:14;;;;;;;;;;;;;;;29.03;45.91;101313.78;5093258;28;19927;-78
2022/08/10 11:55:44;;;;;;;;;;;;;;;29.03;46.10;101306.47;5094241;28;19920;-78
2022/08/10 12:01:01;;;;;;;;;;;;;;;29.03;45.88;101297.44;5094574;28;19927;-78
2022/08/10 12:03:30;;;;;;;;;;;;;;;29.02;45.88;101299.31;5094566;28;19920;-78
2022/08/10 12:06:03;;;;;;;;;;;;;;;29.02;46.09;101295.75;5093786;28;19927;-78
2022/08/10 12:08:30;;;;;;;;;;;;;;;29.02;45.99;101299.31;5092754;28;19920;-78
2022/08/10 12:11:21;;;;;;;;;;;;;;;29.03;45.74;101300.16;5093813;28;19927;-78
2022/08/10 12:14:03;;;;;;;;;;;;;;;29.02;45.59;101293.03;5094260;28;19920;-78
2022/08/10 12:16:50;;;;;;;;;;;;;;;29.02;45.76;101288.41;5097494;28;19920;-78
2022/08/10 12:19:43;;;;;;;;;;;;;;;29.02;45.93;101285.69;5098325;28;19927;-78
2022/08/10 12:22:53;;;;;;;;;;;;;;;29.02;45.92;101282.97;5097118;28;19927;-78
2022/08/10 12:25:26;;;;;;;;;;;;;;;29.03;45.75;101283.81;5098521;28;20275;-78
2022/08/10 12:28:16;;;;;;;;;;;;;;;29.02;45.60;101282.97;5098428;28;19924;-78
2022/08/10 12:30:47;;;;;;;;;;;;;;;29.03;45.77;101287.38;5098694;28;20256;-78
2022/08/10 12:33:17;;;;;;;;;;;;;;;29.02;45.74;101271.22;5098332;28;19927;-78
2022/08/10 12:35:44;;;;;;;;;;;;;;;29.02;45.81;101274.78;5097767;28;20291;-78
2022/08/10 12:38:50;;;;;;;;;;;;;;;29.03;45.60;101275.63;5098014;28;20391;-78
2022/08/10 12:41:27;;;;;;;;;;;;;;;29.02;45.43;101269.34;5098080;28;20384;-78
2022/08/10 12:44:13;;;;;;;;;;;;;;;29.01;45.56;101256.75;5096251;28;20323;-78
2022/08/10 12:46:48;;;;;;;;;;;;;;;29.03;45.33;101267.44;5098098;28;19920;-78
2022/08/10 12:49:27;;;;;;;;;;;;;;;29.01;45.48;101251.28;5097436;28;19920;-78
2022/08/10 12:52:10;;;;;;;;;;;;;;;29.02;45.53;101260.31;5098018;28;19927;-78
2022/08/10 12:54:38;;;;;;;;;;;;;;;29.02;45.79;101255.72;5097745;28;19926;-78
2022/08/10 12:57:10;;;;;;;;;;;;;;;29.01;45.65;101256.75;5097399;28;19920;-78
2022/08/10 12:59:42;;;;;;;;;;;;;;;29.01;45.83;101256.75;5097283;28;19920;-78
2022/08/10 13:02:17;;;;;;;;;;;;;;;29.02;45.76;101258.44;5097566;28;19920;-78
2022/08/10 13:04:48;;;;;;;;;;;;;;;29.02;45.68;101250.25;5097500;28;19927;-78
2022/08/10 13:07:21;;;;;;;;;;;;;;;29.02;45.87;101246.69;5095366;28;19920;-78
2022/08/10 13:10:10;;;;;;;;;;;;;;;29.01;45.78;101240.38;5098017;28;20279;-78
2022/08/10 13:12:38;;;;;;;;;;;;;;;29.02;45.56;101236.63;5097306;28;19927;-78
2022/08/10 13:15:24;;;;;;;;;;;;;;;29.01;45.59;101240.38;5096979;28;19932;-78
2022/08/10 13:18:12;;;;;;;;;;;;;;;29.02;45.84;101233.06;5096923;28;19931;-78
2022/08/10 13:20:52;;;;;;;;;;;;;;;29.03;45.81;101243.75;5097421;28;20256;-78
2022/08/10 13:23:21;;;;;;;;;;;;;;;29.02;45.42;101242.06;5095548;28;19920;-78